createdAt,value
2023-01-19T00:00:44.111Z,5.27
2023-01-19T00:03:17.958Z,5.30
2023-01-19T00:05:46.396Z,5.43
2023-01-19T00:08:17.601Z,7.07
2023-01-19T00:10:48.356Z,5.80
2023-01-19T00:13:17.942Z,6.57
2023-01-19T00:15:45.957Z,6.10
2023-01-19T00:18:14.031Z,6.40
2023-01-19T00:20:42.291Z,7.00
2023-01-19T00:23:10.643Z,5.63
2023-01-19T00:25:42.584Z,5.47
2023-01-19T00:28:11.443Z,5.67
2023-01-19T00:30:42.192Z,5.43
2023-01-19T00:33:10.457Z,5.53
2023-01-19T00:35:38.635Z,5.93
2023-01-19T00:38:06.553Z,5.63
2023-01-19T00:40:34.221Z,6.63
2023-01-19T00:43:04.293Z,6.90
2023-01-19T00:45:32.608Z,6.00
2023-01-19T00:48:02.283Z,6.50
2023-01-19T00:50:32.024Z,6.20
2023-01-19T00:53:02.593Z,5.83
2023-01-19T00:55:32.490Z,5.70
2023-01-19T00:58:00.195Z,5.07
2023-01-19T01:00:28.006Z,7.97
2023-01-19T01:02:57.434Z,6.53
2023-01-19T01:05:26.938Z,6.83
2023-01-19T01:07:54.698Z,6.17
2023-01-19T01:10:25.280Z,5.90
2023-01-19T01:12:53.670Z,5.97
2023-01-19T01:15:27.627Z,5.00
2023-01-19T01:17:55.927Z,7.23
2023-01-19T01:20:27.884Z,6.30
2023-01-19T01:22:58.772Z,6.20
2023-01-19T01:25:28.439Z,6.20
2023-01-19T01:27:56.264Z,6.63
2023-01-19T01:30:24.772Z,6.27
2023-01-19T01:32:52.820Z,6.50
2023-01-19T01:35:20.608Z,8.83
2023-01-19T01:37:49.781Z,6.23
2023-01-19T01:40:19.148Z,6.33
2023-01-19T01:42:47.143Z,8.53
2023-01-19T01:45:31.073Z,5.90
2023-01-19T01:48:03.650Z,6.43
2023-01-19T01:50:35.045Z,6.20
2023-01-19T01:53:09.894Z,6.20
2023-01-19T01:55:40.868Z,6.97
2023-01-19T01:58:10.303Z,9.60
2023-01-19T02:00:53.198Z,6.03
2023-01-19T02:03:22.321Z,7.27
2023-01-19T02:05:50.232Z,6.20
2023-01-19T02:08:43.812Z,6.47
2023-01-19T02:11:29.711Z,6.43
2023-01-19T02:13:57.423Z,6.23
2023-01-19T02:16:26.132Z,6.40
2023-01-19T02:18:53.907Z,5.67
2023-01-19T02:21:26.634Z,6.63
2023-01-19T02:23:57.760Z,6.73
2023-01-19T02:26:28.885Z,5.83
2023-01-19T02:28:59.860Z,6.90
2023-01-19T02:31:28.702Z,6.10
2023-01-19T02:33:57.101Z,6.40
2023-01-19T02:36:28.948Z,6.50
2023-01-19T02:39:01.421Z,6.00
2023-01-19T02:41:33.784Z,6.43
2023-01-19T02:44:03.408Z,7.40
2023-01-19T02:46:31.687Z,6.40
2023-01-19T02:49:00.994Z,6.90
2023-01-19T02:51:29.908Z,7.87
2023-01-19T02:54:36.272Z,6.90
2023-01-19T02:57:19.903Z,7.63
2023-01-19T02:59:57.920Z,6.60
2023-01-19T03:02:33.391Z,6.53
2023-01-19T03:05:18.505Z,6.67
2023-01-19T03:07:53.502Z,7.63
2023-01-19T03:10:30.039Z,6.70
2023-01-19T03:13:04.211Z,6.83
2023-01-19T03:15:39.656Z,5.97
2023-01-19T03:18:11.258Z,6.27
2023-01-19T03:20:41.416Z,6.13
2023-01-19T03:23:12.877Z,7.37
2023-01-19T03:25:43.620Z,6.27
2023-01-19T03:28:15.988Z,6.00
2023-01-19T03:30:47.449Z,7.23
2023-01-19T03:33:20.730Z,6.20
2023-01-19T03:35:51.788Z,6.23
2023-01-19T03:38:26.327Z,6.23
2023-01-19T03:40:59.906Z,6.87
2023-01-19T03:43:31.534Z,7.20
2023-01-19T03:46:00.068Z,7.27
2023-01-19T03:48:27.876Z,6.90
2023-01-19T03:50:56.557Z,8.97
2023-01-19T03:53:24.282Z,6.57
2023-01-19T03:55:54.204Z,6.33
2023-01-19T03:58:22.282Z,6.70
2023-01-19T04:00:52.188Z,7.43
2023-01-19T04:03:21.454Z,6.10
2023-01-19T04:05:49.364Z,5.53
2023-01-19T04:08:17.011Z,7.30
2023-01-19T04:10:44.967Z,6.90
2023-01-19T04:13:12.703Z,6.13
2023-01-19T04:15:40.809Z,5.97
2023-01-19T04:18:10.576Z,6.73
2023-01-19T04:20:38.444Z,5.73
2023-01-19T04:23:06.101Z,5.50
2023-01-19T04:25:33.839Z,6.20
2023-01-19T04:28:01.661Z,5.33
2023-01-19T04:30:29.699Z,8.23
2023-01-19T04:33:00.851Z,6.73
2023-01-19T04:35:30.327Z,5.80
2023-01-19T04:37:58.247Z,5.40
2023-01-19T04:40:26.251Z,6.00
2023-01-19T04:42:54.582Z,5.37
2023-01-19T04:45:22.441Z,5.13
2023-01-19T04:47:51.708Z,5.10
2023-01-19T04:50:19.594Z,5.80
2023-01-19T04:52:49.203Z,7.70
2023-01-19T04:55:17.001Z,8.17
2023-01-19T04:57:45.875Z,5.73
2023-01-19T05:00:14.442Z,5.20
2023-01-19T05:02:45.535Z,6.37
2023-01-19T05:05:14.011Z,5.80
2023-01-19T05:07:41.715Z,4.30
2023-01-19T05:10:12.901Z,4.43
2023-01-19T05:12:42.251Z,4.37
2023-01-19T05:15:11.470Z,5.13
2023-01-19T05:17:39.405Z,5.10
2023-01-19T05:20:08.722Z,4.50
2023-01-19T05:22:36.519Z,6.13
2023-01-19T05:25:04.339Z,5.87
2023-01-19T05:27:33.357Z,6.77
2023-01-19T05:30:01.103Z,4.67
2023-01-19T05:32:28.917Z,5.27
2023-01-19T05:34:56.596Z,5.77
2023-01-19T05:37:24.320Z,4.30
2023-01-19T05:39:52.359Z,6.30
2023-01-19T05:42:20.065Z,6.07
2023-01-19T05:44:49.961Z,5.03
2023-01-19T05:47:18.025Z,5.63
2023-01-19T05:49:47.029Z,5.73
2023-01-19T05:52:15.257Z,5.17
2023-01-19T05:54:42.989Z,5.03
2023-01-19T05:57:11.983Z,4.37
2023-01-19T05:59:39.909Z,6.53
2023-01-19T06:02:09.882Z,5.20
2023-01-19T06:04:37.588Z,6.10
2023-01-19T06:07:06.571Z,4.97
2023-01-19T06:09:34.576Z,5.63
2023-01-19T06:12:02.207Z,6.07
2023-01-19T06:14:30.158Z,5.70
2023-01-19T06:16:58.426Z,6.93
2023-01-19T06:19:27.754Z,5.97
2023-01-19T06:21:55.354Z,6.53
2023-01-19T06:24:23.286Z,5.50
2023-01-19T06:26:52.545Z,6.80
2023-01-19T06:29:20.608Z,6.23
2023-01-19T06:31:49.695Z,5.67
2023-01-19T06:34:18.271Z,5.23
2023-01-19T06:36:47.746Z,6.63
2023-01-19T06:39:15.699Z,5.97
2023-01-19T06:41:43.487Z,5.90
2023-01-19T06:44:11.362Z,4.80
2023-01-19T06:46:39.095Z,4.67
2023-01-19T06:49:07.694Z,5.13
2023-01-19T06:51:35.394Z,4.57
2023-01-19T06:54:04.626Z,4.60
2023-01-19T06:56:32.303Z,4.53
2023-01-19T06:59:00.173Z,4.33
2023-01-19T07:01:27.980Z,4.87
2023-01-19T07:03:56.094Z,4.60
2023-01-19T07:06:24.037Z,4.37
2023-01-19T07:08:51.913Z,4.43
2023-01-19T07:11:29.757Z,4.60
2023-01-19T07:14:00.901Z,5.07
2023-01-19T07:16:29.146Z,4.70
2023-01-19T07:18:57.296Z,4.97
2023-01-19T07:21:25.851Z,6.07
2023-01-19T07:23:55.020Z,4.90
2023-01-19T07:26:26.262Z,4.90
2023-01-19T07:28:53.999Z,4.90
2023-01-19T07:31:22.343Z,4.67
2023-01-19T07:33:50.181Z,4.40
2023-01-19T07:36:18.044Z,4.57
2023-01-19T07:38:45.804Z,4.80
2023-01-19T07:41:14.005Z,4.47
2023-01-19T07:43:43.754Z,4.70
2023-01-19T07:46:11.704Z,4.17
2023-01-19T07:48:39.757Z,4.30
2023-01-19T07:51:11.710Z,4.50
2023-01-19T07:53:42.571Z,4.40
2023-01-19T07:56:10.863Z,4.57
2023-01-19T07:58:38.559Z,4.60
2023-01-19T08:01:09.565Z,4.13
2023-01-19T08:03:37.617Z,4.33
2023-01-19T08:06:06.233Z,4.60
2023-01-19T08:08:34.964Z,4.60
2023-01-19T08:11:03.269Z,4.10
2023-01-19T08:13:31.483Z,4.43
2023-01-19T08:15:59.341Z,4.17
2023-01-19T08:18:28.794Z,5.17
2023-01-19T08:20:56.523Z,4.30
2023-01-19T08:23:24.363Z,4.23
2023-01-19T08:25:52.003Z,4.00
2023-01-19T08:28:19.861Z,4.53
2023-01-19T08:30:54.298Z,4.17
2023-01-19T08:33:26.977Z,4.80
2023-01-19T08:35:58.456Z,4.70
2023-01-19T08:38:26.329Z,4.10
2023-01-19T08:40:53.972Z,4.07
2023-01-19T08:43:21.664Z,4.80
2023-01-19T08:45:53.017Z,4.53
2023-01-19T08:48:22.560Z,5.17
2023-01-19T08:50:51.958Z,4.60
2023-01-19T08:53:23.730Z,4.67
2023-01-19T08:55:55.926Z,4.40
2023-01-19T08:58:24.283Z,4.47
2023-01-19T09:00:52.915Z,4.13
2023-01-19T09:03:22.817Z,4.23
2023-01-19T09:05:50.810Z,4.40
2023-01-19T09:08:19.452Z,4.33
2023-01-19T09:10:50.681Z,4.50
2023-01-19T09:13:20.607Z,4.87
2023-01-19T09:15:48.441Z,5.27
2023-01-19T09:18:18.493Z,5.03
2023-01-19T09:20:48.231Z,4.80
2023-01-19T09:23:18.667Z,4.70
2023-01-19T09:25:49.762Z,4.90
2023-01-19T09:28:18.938Z,5.13
2023-01-19T09:30:46.969Z,5.40
2023-01-19T09:33:16.262Z,5.43
2023-01-19T09:35:45.833Z,5.20
2023-01-19T09:38:15.455Z,5.23
2023-01-19T09:40:45.097Z,5.53
2023-01-19T09:43:36.785Z,5.97
2023-01-19T09:46:11.761Z,5.90
2023-01-19T09:48:48.393Z,6.63
2023-01-19T09:51:19.995Z,6.40
2023-01-19T09:53:56.870Z,6.00
2023-01-19T09:56:26.116Z,6.60
2023-01-19T09:58:56.403Z,6.47
2023-01-19T10:01:37.933Z,6.90
2023-01-19T10:04:30.096Z,7.53
2023-01-19T10:07:09.311Z,7.17
2023-01-19T10:09:47.715Z,9.43
2023-01-19T10:12:22.468Z,7.57
2023-01-19T10:14:59.005Z,7.93
2023-01-19T10:17:39.556Z,7.60
2023-01-19T10:20:15.677Z,8.23
2023-01-19T10:22:44.554Z,6.93
2023-01-19T10:25:17.670Z,8.60
2023-01-19T10:27:46.329Z,6.73
2023-01-19T10:30:23.378Z,7.83
2023-01-19T10:32:53.080Z,6.53
2023-01-19T10:35:24.844Z,6.70
2023-01-19T10:37:56.085Z,6.63
2023-01-19T10:40:31.195Z,6.27
2023-01-19T10:42:59.851Z,5.80
2023-01-19T10:45:31.355Z,5.93
2023-01-19T10:48:02.371Z,6.37
2023-01-19T10:50:32.640Z,6.00
2023-01-19T10:53:05.792Z,6.47
2023-01-19T10:55:37.989Z,5.47
2023-01-19T10:58:07.785Z,6.00
2023-01-19T11:00:40.054Z,5.77
2023-01-19T11:03:24.475Z,5.80
2023-01-19T11:05:53.856Z,7.63
2023-01-19T11:08:30.132Z,6.03
2023-01-19T11:11:04.553Z,7.23
2023-01-19T11:13:33.328Z,7.13
2023-01-19T11:16:07.180Z,7.63
2023-01-19T11:18:37.213Z,7.53
2023-01-19T11:21:08.045Z,7.90
2023-01-19T11:23:42.173Z,8.20
2023-01-19T11:26:16.605Z,7.40
2023-01-19T11:28:49.499Z,8.43
2023-01-19T11:31:33.501Z,9.70
2023-01-19T11:34:03.487Z,7.47
2023-01-19T11:36:34.417Z,8.20
2023-01-19T11:39:21.715Z,8.47
2023-01-19T11:41:51.960Z,6.90
2023-01-19T11:44:24.861Z,9.50
2023-01-19T11:46:57.359Z,8.30
2023-01-19T11:49:32.982Z,9.53
2023-01-19T11:52:05.367Z,8.83
2023-01-19T11:54:37.609Z,6.63
2023-01-19T11:57:13.882Z,8.53
2023-01-19T11:59:42.051Z,9.03
2023-01-19T12:02:21.445Z,9.03
2023-01-19T12:04:51.662Z,9.83
2023-01-19T12:07:26.251Z,9.53
2023-01-19T12:09:57.775Z,9.67
2023-01-19T12:12:30.089Z,8.53
2023-01-19T12:15:04.218Z,9.13
2023-01-19T12:17:38.194Z,10.67
2023-01-19T12:20:15.107Z,8.53
2023-01-19T12:22:50.520Z,12.97
2023-01-19T12:25:23.650Z,11.93
2023-01-19T12:27:53.158Z,10.90
2023-01-19T12:30:24.417Z,12.30
2023-01-19T12:33:14.666Z,11.73
2023-01-19T12:35:56.189Z,9.67
2023-01-19T12:38:34.123Z,8.73
2023-01-19T12:41:19.943Z,11.20
2023-01-19T12:43:48.285Z,13.47
2023-01-19T12:46:29.893Z,12.73
2023-01-19T12:49:06.345Z,11.07
2023-01-19T12:51:34.507Z,11.57
2023-01-19T12:54:05.115Z,12.27
2023-01-19T12:56:37.547Z,12.83
2023-01-19T12:59:06.751Z,10.37
2023-01-19T13:01:34.533Z,12.57
2023-01-19T13:04:06.999Z,10.63
2023-01-19T13:07:10.788Z,11.10
2023-01-19T13:09:40.409Z,10.90
2023-01-19T13:12:27.766Z,11.97
2023-01-19T13:15:29.382Z,17.33
2023-01-19T13:17:57.576Z,10.00
2023-01-19T13:20:29.672Z,12.20
2023-01-19T13:23:17.787Z,10.90
2023-01-19T13:25:50.605Z,9.83
2023-01-19T13:28:24.859Z,8.93
2023-01-19T13:30:57.430Z,13.07
2023-01-19T13:33:28.567Z,8.97
2023-01-19T13:35:59.845Z,14.57
2023-01-19T13:38:29.214Z,12.27
2023-01-19T13:41:00.391Z,9.90
2023-01-19T13:43:32.220Z,9.27
2023-01-19T13:46:01.441Z,11.97
2023-01-19T13:48:29.299Z,9.83
2023-01-19T13:51:01.636Z,12.77
2023-01-19T13:53:30.457Z,12.27
2023-01-19T13:56:20.868Z,10.93
2023-01-19T13:59:10.328Z,10.30
2023-01-19T14:01:40.110Z,12.70
2023-01-19T14:04:24.055Z,9.80
2023-01-19T14:06:56.020Z,10.53
2023-01-19T14:09:24.280Z,9.90
2023-01-19T14:12:14.205Z,16.07
2023-01-19T14:14:43.117Z,10.60
2023-01-19T14:17:23.420Z,10.83
2023-01-19T14:19:52.743Z,12.30
2023-01-19T14:22:21.945Z,9.83
2023-01-19T14:24:49.699Z,11.60
2023-01-19T14:27:24.362Z,11.60
2023-01-19T14:29:54.906Z,11.00
2023-01-19T14:32:24.570Z,13.20
2023-01-19T14:34:53.950Z,15.17
2023-01-19T14:37:26.256Z,13.97
2023-01-19T14:39:58.985Z,16.90
2023-01-19T14:42:29.891Z,12.50
2023-01-19T14:45:00.564Z,10.33
2023-01-19T14:47:38.311Z,13.00
2023-01-19T14:50:23.675Z,12.07
2023-01-19T14:52:58.883Z,10.80
2023-01-19T14:55:33.564Z,10.33
2023-01-19T14:58:01.268Z,9.60
2023-01-19T15:00:30.468Z,12.50
2023-01-19T15:02:58.592Z,14.27
2023-01-19T15:05:26.389Z,15.97
2023-01-19T15:07:56.553Z,10.50
2023-01-19T15:10:25.919Z,13.03
2023-01-19T15:12:55.684Z,12.03
2023-01-19T15:15:27.927Z,12.10
2023-01-19T15:17:56.411Z,12.17
2023-01-19T15:20:24.562Z,11.30
2023-01-19T15:22:52.425Z,12.07
2023-01-19T15:25:26.091Z,11.60
2023-01-19T15:27:54.457Z,12.97
2023-01-19T15:30:25.191Z,12.43
2023-01-19T15:32:53.079Z,12.17
2023-01-19T15:35:24.048Z,12.37
2023-01-19T15:37:51.951Z,13.57
2023-01-19T15:40:23.533Z,12.17
2023-01-19T15:42:51.831Z,12.30
2023-01-19T15:45:33.251Z,11.30
2023-01-19T15:48:02.624Z,15.53
2023-01-19T15:50:30.874Z,14.10
2023-01-19T15:52:59.577Z,14.33
2023-01-19T15:55:34.107Z,14.87
2023-01-19T15:58:02.527Z,15.73
2023-01-19T16:00:31.042Z,15.40
2023-01-19T16:02:59.404Z,17.60
2023-01-19T16:05:41.903Z,20.13
2023-01-19T16:08:10.313Z,18.27
2023-01-19T16:10:40.163Z,21.70
2023-01-19T16:13:09.063Z,22.77
2023-01-19T16:15:37.508Z,18.40
2023-01-19T16:18:06.261Z,23.47
2023-01-19T16:20:34.249Z,22.43
2023-01-19T16:23:14.511Z,18.50
2023-01-19T16:25:44.674Z,19.47
2023-01-19T16:28:13.353Z,19.27
2023-01-19T16:30:41.389Z,19.23
2023-01-19T16:33:11.752Z,25.83
2023-01-19T16:35:39.804Z,22.23
2023-01-19T16:38:09.438Z,23.43
2023-01-19T16:40:37.269Z,21.70
2023-01-19T16:43:06.613Z,21.47
2023-01-19T16:45:34.511Z,26.23
2023-01-19T16:48:02.180Z,21.20
2023-01-19T16:50:30.088Z,25.97
2023-01-19T16:52:59.114Z,25.10
2023-01-19T16:55:26.889Z,24.63
2023-01-19T16:57:56.722Z,23.77
2023-01-19T17:00:26.249Z,30.37
2023-01-19T17:02:54.026Z,21.33
2023-01-19T17:05:22.297Z,24.07
2023-01-19T17:07:49.953Z,23.03
2023-01-19T17:10:17.786Z,25.47
2023-01-19T17:12:45.587Z,24.93
2023-01-19T17:15:13.403Z,22.73
2023-01-19T17:17:42.504Z,23.03
2023-01-19T17:20:11.513Z,25.70
2023-01-19T17:22:39.739Z,26.77
2023-01-19T17:25:09.070Z,30.37
2023-01-19T17:27:37.826Z,25.33
2023-01-19T17:30:06.200Z,22.93
2023-01-19T17:32:34.075Z,23.23
2023-01-19T17:35:03.627Z,22.60
2023-01-19T17:37:31.701Z,24.50
2023-01-19T17:39:59.406Z,25.03
2023-01-19T17:42:27.174Z,23.97
2023-01-19T17:44:55.243Z,24.30
2023-01-19T17:47:25.973Z,25.23
2023-01-19T17:49:53.921Z,24.17
2023-01-19T17:52:23.238Z,25.03
2023-01-19T17:54:52.181Z,24.73
2023-01-19T17:57:19.881Z,27.10
2023-01-19T17:59:48.331Z,28.10
2023-01-19T18:02:16.132Z,22.87
2023-01-19T18:04:44.408Z,20.43
2023-01-19T18:07:13.631Z,21.63
2023-01-19T18:09:42.821Z,21.57
2023-01-19T18:12:10.964Z,19.57
2023-01-19T18:14:40.330Z,19.23
2023-01-19T18:17:08.296Z,24.57
2023-01-19T18:19:37.449Z,20.83
2023-01-19T18:22:05.506Z,23.63
2023-01-19T18:24:33.441Z,23.43
2023-01-19T18:27:02.695Z,25.13
2023-01-19T18:29:30.544Z,21.77
2023-01-19T18:31:58.261Z,23.37
2023-01-19T18:34:26.157Z,20.47
2023-01-19T18:36:53.908Z,22.93
2023-01-19T18:39:21.691Z,23.73
2023-01-19T18:41:50.381Z,28.03
2023-01-19T18:44:20.683Z,22.60
2023-01-19T18:46:48.815Z,21.80
2023-01-19T18:49:16.548Z,20.50
2023-01-19T18:51:44.213Z,22.67
2023-01-19T18:54:12.344Z,19.27
2023-01-19T18:56:40.284Z,19.40
2023-01-19T18:59:08.122Z,24.47
2023-01-19T19:01:38.024Z,20.43
2023-01-19T19:04:07.198Z,22.90
2023-01-19T19:06:35.899Z,19.53
2023-01-19T19:09:04.192Z,19.60
2023-01-19T19:11:32.026Z,18.90
2023-01-19T19:14:01.630Z,20.07
2023-01-19T19:16:29.924Z,18.90
2023-01-19T19:19:00.241Z,19.97
2023-01-19T19:21:28.275Z,22.83
2023-01-19T19:23:59.068Z,21.37
2023-01-19T19:26:28.429Z,19.13
2023-01-19T19:28:56.731Z,20.17
2023-01-19T19:31:27.888Z,19.13
2023-01-19T19:33:56.684Z,18.77
2023-01-19T19:36:27.639Z,20.03
2023-01-19T19:38:55.631Z,19.97
2023-01-19T19:41:26.972Z,26.23
2023-01-19T19:43:55.542Z,20.60
2023-01-19T19:46:24.298Z,19.63
2023-01-19T19:48:53.255Z,19.30
2023-01-19T19:51:23.678Z,20.27
2023-01-19T19:53:54.839Z,17.97
2023-01-19T19:56:25.664Z,22.17
2023-01-19T19:58:55.692Z,18.30
2023-01-19T20:01:27.563Z,17.77
2023-01-19T20:03:56.014Z,20.73
2023-01-19T20:06:26.193Z,19.20
2023-01-19T20:08:56.751Z,16.57
2023-01-19T20:11:27.506Z,17.37
2023-01-19T20:13:55.509Z,17.03
2023-01-19T20:16:24.331Z,18.50
2023-01-19T20:18:55.441Z,16.60
2023-01-19T20:21:25.123Z,20.83
2023-01-19T20:23:54.062Z,16.57
2023-01-19T20:26:28.307Z,17.57
2023-01-19T20:28:59.682Z,17.67
2023-01-19T20:31:30.019Z,18.20
2023-01-19T20:34:00.404Z,18.53
2023-01-19T20:36:29.060Z,16.60
2023-01-19T20:38:57.867Z,17.50
2023-01-19T20:41:28.867Z,19.73
2023-01-19T20:43:57.184Z,17.20
2023-01-19T20:46:25.202Z,15.67
2023-01-19T20:48:54.734Z,19.07
2023-01-19T20:51:23.095Z,18.27
2023-01-19T20:53:51.196Z,18.80
2023-01-19T20:56:19.092Z,20.70
2023-01-19T20:58:48.222Z,20.97
2023-01-19T21:01:20.520Z,20.37
2023-01-19T21:03:49.045Z,19.10
2023-01-19T21:06:17.432Z,20.83
2023-01-19T21:08:45.433Z,19.13
2023-01-19T21:11:14.431Z,20.03
2023-01-19T21:13:43.171Z,17.53
2023-01-19T21:16:12.925Z,21.73
2023-01-19T21:18:41.051Z,19.60
2023-01-19T21:21:15.001Z,21.40
2023-01-19T21:23:49.099Z,19.97
2023-01-19T21:26:17.178Z,18.87
2023-01-19T21:28:45.255Z,21.30
2023-01-19T21:31:15.535Z,20.83
2023-01-19T21:33:44.912Z,19.43
2023-01-19T21:36:13.018Z,21.23
2023-01-19T21:38:42.002Z,23.47
2023-01-19T21:41:12.801Z,21.77
2023-01-19T21:43:42.728Z,24.67
2023-01-19T21:46:12.052Z,20.73
2023-01-19T21:48:42.319Z,25.37
2023-01-19T21:51:10.568Z,21.27
2023-01-19T21:53:38.995Z,20.43
2023-01-19T21:56:08.078Z,21.27
2023-01-19T21:58:36.600Z,21.43
2023-01-19T22:01:10.093Z,21.77
2023-01-19T22:03:38.477Z,19.50
2023-01-19T22:06:09.893Z,21.40
2023-01-19T22:08:38.233Z,19.53
2023-01-19T22:11:06.861Z,18.97
2023-01-19T22:13:35.312Z,22.90
2023-01-19T22:16:04.270Z,20.50
2023-01-19T22:18:32.690Z,19.30
2023-01-19T22:21:09.922Z,21.77
2023-01-19T22:23:38.004Z,20.93
2023-01-19T22:26:07.151Z,19.70
2023-01-19T22:28:35.440Z,21.57
2023-01-19T22:31:04.740Z,20.30
2023-01-19T22:33:32.646Z,20.80
2023-01-19T22:36:17.388Z,18.97
2023-01-19T22:38:50.968Z,21.87
2023-01-19T22:41:21.632Z,20.77
2023-01-19T22:43:50.506Z,19.20
2023-01-19T22:46:19.314Z,18.67
2023-01-19T22:48:47.407Z,16.97
2023-01-19T22:51:17.958Z,17.00
2023-01-19T22:53:46.365Z,17.10
2023-01-19T22:56:15.618Z,18.27
2023-01-19T22:58:45.234Z,19.60
2023-01-19T23:01:14.865Z,17.73
2023-01-19T23:03:43.080Z,17.27
2023-01-19T23:06:14.123Z,17.63
2023-01-19T23:08:43.904Z,18.37
2023-01-19T23:11:14.129Z,18.03
2023-01-19T23:13:42.103Z,19.33
2023-01-19T23:16:11.693Z,17.77
2023-01-19T23:18:40.298Z,20.47
2023-01-19T23:21:10.080Z,18.97
2023-01-19T23:23:39.085Z,17.37
2023-01-19T23:26:10.337Z,19.63
2023-01-19T23:28:39.153Z,17.10
2023-01-19T23:31:18.959Z,19.30
2023-01-19T23:33:46.917Z,21.77
2023-01-19T23:36:15.951Z,18.90
2023-01-19T23:38:49.122Z,19.30
2023-01-19T23:41:18.412Z,21.07
2023-01-19T23:43:47.101Z,19.73
2023-01-19T23:46:16.194Z,21.87
2023-01-19T23:48:43.919Z,19.33
2023-01-19T23:51:13.907Z,20.07
2023-01-19T23:53:42.269Z,20.10
2023-01-19T23:56:11.451Z,20.30
2023-01-19T23:58:41.087Z,19.63
